Glen Ridge, Florida
Current Conditions -  °F | °C
As of 4:53 PM on Sunday 25 Jan 2015 (Local Time) from KPBI Reporting Station
Broken Clouds Broken Clouds  
Wind Chill: 66°   Ceiling: 25000
Heat Index: 66°   Visibility: 10mi
Dew Point: 31°   Wind: 5mph
Humidity: 27%   Direction: 250°WSW
Pressure: 29.98"   Gusts: NA
Location:  26.6662°N, 80.0908°W
Report Text: KPBI 252153Z 25004KT 10SM BKN250 19/M01 A2998 RMK AO2 SLP150 T01891006
Loading
Personal Weather Stations






























Interactive Weather Map New forecast layout! Learn more

10-Day Weather Forecast

Advertisements
Track Severe Weather on mobile